sensor_id;sensor_type;location;lat;lon;timestamp;P1;P2;P0
76049;PMS7003;64967;50.234;19.224;2023-11-21T00:02:26;8.00;7.75;6.50
76049;PMS7003;64967;50.234;19.224;2023-11-21T00:04:53;17.75;13.50;8.50
76049;PMS7003;64967;50.234;19.224;2023-11-21T00:07:20;15.75;12.25;9.00
76049;PMS7003;64967;50.234;19.224;2023-11-21T00:09:47;18.25;12.50;9.00
76049;PMS7003;64967;50.234;19.224;2023-11-21T00:12:14;12.00;9.00;8.00
76049;PMS7003;64967;50.234;19.224;2023-11-21T00:14:41;14.00;11.50;9.00
76049;PMS7003;64967;50.234;19.224;2023-11-21T00:17:08;15.50;13.00;8.50
76049;PMS7003;64967;50.234;19.224;2023-11-21T00:19:35;13.00;12.75;9.25
76049;PMS7003;64967;50.234;19.224;2023-11-21T00:22:02;13.75;11.75;8.50
76049;PMS7003;64967;50.234;19.224;2023-11-21T00:24:29;19.00;13.50;11.50
76049;PMS7003;64967;50.234;19.224;2023-11-21T00:26:55;16.00;13.25;9.75
76049;PMS7003;64967;50.234;19.224;2023-11-21T00:29:22;13.25;12.00;9.00
76049;PMS7003;64967;50.234;19.224;2023-11-21T00:31:49;11.75;10.25;8.00
76049;PMS7003;64967;50.234;19.224;2023-11-21T00:34:15;13.25;11.00;8.50
76049;PMS7003;64967;50.234;19.224;2023-11-21T00:36:42;15.00;13.00;9.00
76049;PMS7003;64967;50.234;19.224;2023-11-21T00:39:09;16.50;11.00;8.00
76049;PMS7003;64967;50.234;19.224;2023-11-21T00:41:35;13.00;12.00;8.00
76049;PMS7003;64967;50.234;19.224;2023-11-21T00:44:03;11.75;11.00;8.00
76049;PMS7003;64967;50.234;19.224;2023-11-21T00:46:30;13.00;11.25;8.00
76049;PMS7003;64967;50.234;19.224;2023-11-21T00:48:57;10.00;8.75;5.00
76049;PMS7003;64967;50.234;19.224;2023-11-21T00:51:24;11.25;8.00;6.00
76049;PMS7003;64967;50.234;19.224;2023-11-21T00:53:50;6.00;3.00;2.75
76049;PMS7003;64967;50.234;19.224;2023-11-21T00:56:18;7.50;6.50;4.50
76049;PMS7003;64967;50.234;19.224;2023-11-21T00:58:44;7.00;4.00;4.00
76049;PMS7003;64967;50.234;19.224;2023-11-21T01:01:16;9.50;8.00;6.25
76049;PMS7003;64967;50.234;19.224;2023-11-21T01:03:43;6.75;6.00;4.00
76049;PMS7003;64967;50.234;19.224;2023-11-21T01:06:09;7.75;6.00;5.25
76049;PMS7003;64967;50.234;19.224;2023-11-21T01:08:38;8.25;7.00;6.00
76049;PMS7003;64967;50.234;19.224;2023-11-21T01:11:05;8.00;7.00;4.50
76049;PMS7003;64967;50.234;19.224;2023-11-21T01:13:34;14.25;11.50;8.00
76049;PMS7003;64967;50.234;19.224;2023-11-21T01:16:02;13.25;12.25;8.75
76049;PMS7003;64967;50.234;19.224;2023-11-21T01:18:30;15.75;11.50;7.00
76049;PMS7003;64967;50.234;19.224;2023-11-21T01:20:56;12.50;12.25;9.00
76049;PMS7003;64967;50.234;19.224;2023-11-21T01:23:23;19.25;14.00;10.25
76049;PMS7003;64967;50.234;19.224;2023-11-21T01:25:50;18.25;16.25;9.50
76049;PMS7003;64967;50.234;19.224;2023-11-21T01:28:18;14.25;11.50;9.00
76049;PMS7003;64967;50.234;19.224;2023-11-21T01:30:46;12.00;11.00;8.00
76049;PMS7003;64967;50.234;19.224;2023-11-21T01:33:12;12.00;10.75;8.00
76049;PMS7003;64967;50.234;19.224;2023-11-21T01:35:42;10.50;7.75;6.00
76049;PMS7003;64967;50.234;19.224;2023-11-21T01:38:08;13.00;10.00;7.50
76049;PMS7003;64967;50.234;19.224;2023-11-21T01:40:35;17.25;14.00;10.00
76049;PMS7003;64967;50.234;19.224;2023-11-21T01:43:02;16.00;13.75;10.00
76049;PMS7003;64967;50.234;19.224;2023-11-21T01:45:31;8.00;7.75;6.00
76049;PMS7003;64967;50.234;19.224;2023-11-21T01:48:00;12.25;11.00;8.75
76049;PMS7003;64967;50.234;19.224;2023-11-21T01:50:28;17.25;13.75;9.50
76049;PMS7003;64967;50.234;19.224;2023-11-21T01:52:55;16.50;13.75;11.00
76049;PMS7003;64967;50.234;19.224;2023-11-21T01:55:23;16.00;13.50;8.75
76049;PMS7003;64967;50.234;19.224;2023-11-21T01:57:54;12.75;10.00;8.00
76049;PMS7003;64967;50.234;19.224;2023-11-21T02:00:22;12.75;10.00;7.00
76049;PMS7003;64967;50.234;19.224;2023-11-21T02:02:50;12.25;8.25;7.00
76049;PMS7003;64967;50.234;19.224;2023-11-21T02:05:17;9.00;8.25;7.00
76049;PMS7003;64967;50.234;19.224;2023-11-21T02:07:45;14.00;8.00;7.00
76049;PMS7003;64967;50.234;19.224;2023-11-21T02:10:18;10.00;8.25;7.25
76049;PMS7003;64967;50.234;19.224;2023-11-21T02:12:49;11.75;10.75;7.75
76049;PMS7003;64967;50.234;19.224;2023-11-21T02:15:19;11.50;7.75;6.25
76049;PMS7003;64967;50.234;19.224;2023-11-21T02:17:50;10.75;8.25;6.75
76049;PMS7003;64967;50.234;19.224;2023-11-21T02:20:19;6.50;6.50;5.00
76049;PMS7003;64967;50.234;19.224;2023-11-21T02:22:50;8.25;7.00;6.00
76049;PMS7003;64967;50.234;19.224;2023-11-21T02:25:28;10.50;7.00;6.00
76049;PMS7003;64967;50.234;19.224;2023-11-21T02:27:59;9.75;7.50;6.00
76049;PMS7003;64967;50.234;19.224;2023-11-21T02:30:27;8.50;8.50;7.00
76049;PMS7003;64967;50.234;19.224;2023-11-21T02:32:54;9.00;8.00;4.00
76049;PMS7003;64967;50.234;19.224;2023-11-21T02:35:22;6.25;6.25;5.50
76049;PMS7003;64967;50.234;19.224;2023-11-21T02:37:49;5.50;5.50;4.00
76049;PMS7003;64967;50.234;19.224;2023-11-21T02:40:23;8.75;8.75;7.00
76049;PMS7003;64967;50.234;19.224;2023-11-21T02:42:51;8.25;7.75;6.25
76049;PMS7003;64967;50.234;19.224;2023-11-21T02:45:18;7.25;7.25;4.75
76049;PMS7003;64967;50.234;19.224;2023-11-21T02:47:47;8.00;7.50;6.00
76049;PMS7003;64967;50.234;19.224;2023-11-21T02:50:16;10.00;8.00;6.00
76049;PMS7003;64967;50.234;19.224;2023-11-21T02:52:45;8.75;8.00;6.50
76049;PMS7003;64967;50.234;19.224;2023-11-21T02:55:12;12.75;10.75;7.00
76049;PMS7003;64967;50.234;19.224;2023-11-21T02:57:38;8.50;7.00;6.00
76049;PMS7003;64967;50.234;19.224;2023-11-21T03:00:05;11.00;8.25;6.25
76049;PMS7003;64967;50.234;19.224;2023-11-21T03:02:41;7.25;7.25;6.00
76049;PMS7003;64967;50.234;19.224;2023-11-21T03:05:09;8.25;8.25;7.25
76049;PMS7003;64967;50.234;19.224;2023-11-21T03:07:39;11.25;9.00;6.75
76049;PMS7003;64967;50.234;19.224;2023-11-21T03:10:07;8.25;7.00;4.00
76049;PMS7003;64967;50.234;19.224;2023-11-21T03:12:38;7.00;6.00;4.00
76049;PMS7003;64967;50.234;19.224;2023-11-21T03:15:06;8.00;7.25;6.00
76049;PMS7003;64967;50.234;19.224;2023-11-21T03:17:33;10.50;7.50;4.50
76049;PMS7003;64967;50.234;19.224;2023-11-21T03:20:03;8.00;4.00;3.00
76049;PMS7003;64967;50.234;19.224;2023-11-21T03:22:31;9.00;7.25;5.25
76049;PMS7003;64967;50.234;19.224;2023-11-21T03:24:58;5.00;3.75;3.00
76049;PMS7003;64967;50.234;19.224;2023-11-21T03:27:25;8.50;8.50;6.75
76049;PMS7003;64967;50.234;19.224;2023-11-21T03:29:51;7.50;7.25;6.00
76049;PMS7003;64967;50.234;19.224;2023-11-21T03:32:18;8.00;7.75;6.00
76049;PMS7003;64967;50.234;19.224;2023-11-21T03:34:54;6.50;5.50;3.25
76049;PMS7003;64967;50.234;19.224;2023-11-21T03:37:23;7.00;6.00;4.00
76049;PMS7003;64967;50.234;19.224;2023-11-21T03:39:51;8.75;7.00;6.00
76049;PMS7003;64967;50.234;19.224;2023-11-21T03:42:17;7.25;5.00;4.00
76049;PMS7003;64967;50.234;19.224;2023-11-21T03:44:44;6.00;5.00;3.00
76049;PMS7003;64967;50.234;19.224;2023-11-21T03:47:11;7.00;6.75;4.00
76049;PMS7003;64967;50.234;19.224;2023-11-21T03:49:38;8.75;7.00;5.50
76049;PMS7003;64967;50.234;19.224;2023-11-21T03:52:05;11.00;8.25;7.25
76049;PMS7003;64967;50.234;19.224;2023-11-21T03:54:33;7.50;7.00;6.00
76049;PMS7003;64967;50.234;19.224;2023-11-21T03:57:00;8.25;7.00;6.00
76049;PMS7003;64967;50.234;19.224;2023-11-21T03:59:27;9.00;6.50;4.50
76049;PMS7003;64967;50.234;19.224;2023-11-21T04:01:55;9.50;7.50;6.00
76049;PMS7003;64967;50.234;19.224;2023-11-21T04:04:23;10.25;8.50;7.25
76049;PMS7003;64967;50.234;19.224;2023-11-21T04:06:50;10.25;8.50;6.25
76049;PMS7003;64967;50.234;19.224;2023-11-21T04:09:18;8.75;7.75;6.75
76049;PMS7003;64967;50.234;19.224;2023-11-21T04:11:45;10.25;9.75;7.00
76049;PMS7003;64967;50.234;19.224;2023-11-21T04:14:13;6.25;6.00;4.00
76049;PMS7003;64967;50.234;19.224;2023-11-21T04:16:40;9.50;7.00;6.00
76049;PMS7003;64967;50.234;19.224;2023-11-21T04:19:07;8.50;8.50;7.00
76049;PMS7003;64967;50.234;19.224;2023-11-21T04:21:36;7.25;6.25;4.00
76049;PMS7003;64967;50.234;19.224;2023-11-21T04:24:03;11.25;7.75;6.25
76049;PMS7003;64967;50.234;19.224;2023-11-21T04:26:30;11.00;8.75;7.00
76049;PMS7003;64967;50.234;19.224;2023-11-21T04:28:57;11.75;8.75;7.75
76049;PMS7003;64967;50.234;19.224;2023-11-21T04:31:24;13.25;10.00;7.75
76049;PMS7003;64967;50.234;19.224;2023-11-21T04:33:51;8.25;7.25;6.00
76049;PMS7003;64967;50.234;19.224;2023-11-21T04:36:17;12.50;8.75;6.75
76049;PMS7003;64967;50.234;19.224;2023-11-21T04:38:46;8.00;4.50;3.25
76049;PMS7003;64967;50.234;19.224;2023-11-21T04:41:12;7.50;7.25;6.50
76049;PMS7003;64967;50.234;19.224;2023-11-21T04:43:39;12.25;9.75;7.00
76049;PMS7003;64967;50.234;19.224;2023-11-21T04:46:22;6.25;5.50;4.00
76049;PMS7003;64967;50.234;19.224;2023-11-21T04:48:48;8.50;7.75;7.00
76049;PMS7003;64967;50.234;19.224;2023-11-21T04:51:15;11.50;8.50;7.00
76049;PMS7003;64967;50.234;19.224;2023-11-21T04:53:42;10.50;7.75;6.00
76049;PMS7003;64967;50.234;19.224;2023-11-21T04:56:08;8.00;7.00;6.25
76049;PMS7003;64967;50.234;19.224;2023-11-21T04:58:35;8.25;7.75;6.00
76049;PMS7003;64967;50.234;19.224;2023-11-21T05:01:02;6.75;6.50;4.00
76049;PMS7003;64967;50.234;19.224;2023-11-21T05:03:33;9.50;9.00;6.00
76049;PMS7003;64967;50.234;19.224;2023-11-21T05:06:00;10.25;7.50;6.00
76049;PMS7003;64967;50.234;19.224;2023-11-21T05:08:27;9.00;7.75;6.50
76049;PMS7003;64967;50.234;19.224;2023-11-21T05:10:53;13.75;11.50;8.50
76049;PMS7003;64967;50.234;19.224;2023-11-21T05:13:20;6.50;6.25;4.50
76049;PMS7003;64967;50.234;19.224;2023-11-21T05:15:47;11.50;10.75;8.00
76049;PMS7003;64967;50.234;19.224;2023-11-21T05:18:13;13.50;11.00;8.00
76049;PMS7003;64967;50.234;19.224;2023-11-21T05:20:40;20.50;15.75;10.75
76049;PMS7003;64967;50.234;19.224;2023-11-21T05:23:07;16.25;13.75;12.00
76049;PMS7003;64967;50.234;19.224;2023-11-21T05:25:34;12.25;12.25;8.25
76049;PMS7003;64967;50.234;19.224;2023-11-21T05:28:03;12.75;11.75;7.75
76049;PMS7003;64967;50.234;19.224;2023-11-21T05:30:30;14.00;10.25;7.00
76049;PMS7003;64967;50.234;19.224;2023-11-21T05:32:56;11.00;11.00;7.25
76049;PMS7003;64967;50.234;19.224;2023-11-21T05:35:23;18.00;14.50;10.00
76049;PMS7003;64967;50.234;19.224;2023-11-21T05:37:50;16.50;14.00;9.75
76049;PMS7003;64967;50.234;19.224;2023-11-21T05:40:16;19.75;18.00;14.00
76049;PMS7003;64967;50.234;19.224;2023-11-21T05:42:43;22.25;18.00;12.50
76049;PMS7003;64967;50.234;19.224;2023-11-21T05:45:10;18.75;17.50;12.75
76049;PMS7003;64967;50.234;19.224;2023-11-21T05:47:42;28.25;19.00;14.00
76049;PMS7003;64967;50.234;19.224;2023-11-21T05:50:10;26.50;21.75;15.75
76049;PMS7003;64967;50.234;19.224;2023-11-21T05:52:38;20.75;18.25;13.00
76049;PMS7003;64967;50.234;19.224;2023-11-21T05:55:08;25.00;22.25;15.75
76049;PMS7003;64967;50.234;19.224;2023-11-21T05:57:35;17.25;16.25;12.75
76049;PMS7003;64967;50.234;19.224;2023-11-21T06:00:08;22.75;20.50;15.00
76049;PMS7003;64967;50.234;19.224;2023-11-21T06:02:57;20.75;19.00;13.00
76049;PMS7003;64967;50.234;19.224;2023-11-21T06:05:24;17.75;17.25;13.75
76049;PMS7003;64967;50.234;19.224;2023-11-21T06:07:53;18.00;18.00;12.50
76049;PMS7003;64967;50.234;19.224;2023-11-21T06:10:21;17.75;15.75;12.00
76049;PMS7003;64967;50.234;19.224;2023-11-21T06:12:51;20.75;17.75;13.00
76049;PMS7003;64967;50.234;19.224;2023-11-21T06:15:18;21.50;20.00;15.75
76049;PMS7003;64967;50.234;19.224;2023-11-21T06:17:49;15.25;13.50;8.00
76049;PMS7003;64967;50.234;19.224;2023-11-21T06:20:19;18.50;13.00;11.25
76049;PMS7003;64967;50.234;19.224;2023-11-21T06:22:49;22.00;17.50;12.25
76049;PMS7003;64967;50.234;19.224;2023-11-21T06:25:16;15.50;15.50;10.50
76049;PMS7003;64967;50.234;19.224;2023-11-21T06:27:44;8.75;7.25;2.25
76049;PMS7003;64967;50.234;19.224;2023-11-21T06:30:12;22.00;19.25;13.00
76049;PMS7003;64967;50.234;19.224;2023-11-21T06:32:40;26.75;23.75;17.25
76049;PMS7003;64967;50.234;19.224;2023-11-21T06:35:08;20.50;18.00;13.00
76049;PMS7003;64967;50.234;19.224;2023-11-21T06:37:36;22.00;16.75;12.75
76049;PMS7003;64967;50.234;19.224;2023-11-21T06:40:03;18.25;14.50;11.00
76049;PMS7003;64967;50.234;19.224;2023-11-21T06:42:30;18.25;16.25;12.00
76049;PMS7003;64967;50.234;19.224;2023-11-21T06:44:57;12.25;9.25;4.75
76049;PMS7003;64967;50.234;19.224;2023-11-21T06:47:25;12.75;12.00;8.75
76049;PMS7003;64967;50.234;19.224;2023-11-21T06:49:52;14.75;11.50;6.75
76049;PMS7003;64967;50.234;19.224;2023-11-21T06:52:19;14.25;10.75;7.75
76049;PMS7003;64967;50.234;19.224;2023-11-21T06:54:47;17.75;14.00;10.00
76049;PMS7003;64967;50.234;19.224;2023-11-21T06:57:16;15.25;15.25;11.75
76049;PMS7003;64967;50.234;19.224;2023-11-21T06:59:42;20.00;18.75;13.00
76049;PMS7003;64967;50.234;19.224;2023-11-21T07:02:09;23.50;19.50;13.00
76049;PMS7003;64967;50.234;19.224;2023-11-21T07:04:36;21.75;16.25;10.50
76049;PMS7003;64967;50.234;19.224;2023-11-21T07:07:03;25.50;20.25;13.00
76049;PMS7003;64967;50.234;19.224;2023-11-21T07:09:30;22.25;21.50;15.00
76049;PMS7003;64967;50.234;19.224;2023-11-21T07:11:57;32.25;24.25;15.25
76049;PMS7003;64967;50.234;19.224;2023-11-21T07:14:24;20.50;20.50;14.75
76049;PMS7003;64967;50.234;19.224;2023-11-21T07:16:50;26.25;22.75;13.75
76049;PMS7003;64967;50.234;19.224;2023-11-21T07:19:19;25.75;19.25;13.00
76049;PMS7003;64967;50.234;19.224;2023-11-21T07:21:46;28.00;21.50;15.50
76049;PMS7003;64967;50.234;19.224;2023-11-21T07:24:13;19.50;18.50;13.00
76049;PMS7003;64967;50.234;19.224;2023-11-21T07:26:40;21.75;18.75;13.25
76049;PMS7003;64967;50.234;19.224;2023-11-21T07:29:07;29.75;23.00;16.25
76049;PMS7003;64967;50.234;19.224;2023-11-21T07:31:33;27.75;23.50;16.75
76049;PMS7003;64967;50.234;19.224;2023-11-21T07:34:00;33.25;28.00;18.50
76049;PMS7003;64967;50.234;19.224;2023-11-21T07:36:27;26.50;22.75;14.50
76049;PMS7003;64967;50.234;19.224;2023-11-21T07:38:54;24.25;19.00;13.25
76049;PMS7003;64967;50.234;19.224;2023-11-21T07:41:20;20.00;18.75;13.00
76049;PMS7003;64967;50.234;19.224;2023-11-21T07:43:56;25.00;18.50;13.75
76049;PMS7003;64967;50.234;19.224;2023-11-21T07:46:23;35.75;28.50;18.25
76049;PMS7003;64967;50.234;19.224;2023-11-21T07:48:52;27.25;23.00;17.00
76049;PMS7003;64967;50.234;19.224;2023-11-21T07:51:19;24.75;23.75;17.50
76049;PMS7003;64967;50.234;19.224;2023-11-21T07:53:46;27.00;23.75;18.00
76049;PMS7003;64967;50.234;19.224;2023-11-21T07:56:13;33.00;28.50;19.00
76049;PMS7003;64967;50.234;19.224;2023-11-21T07:58:39;29.00;24.50;17.75
76049;PMS7003;64967;50.234;19.224;2023-11-21T08:01:06;21.25;19.25;14.00
76049;PMS7003;64967;50.234;19.224;2023-11-21T08:03:34;24.75;19.25;14.00
76049;PMS7003;64967;50.234;19.224;2023-11-21T08:06:01;25.25;23.00;16.50
76049;PMS7003;64967;50.234;19.224;2023-11-21T08:08:29;24.50;20.00;15.00
76049;PMS7003;64967;50.234;19.224;2023-11-21T08:10:56;21.25;19.00;14.50
76049;PMS7003;64967;50.234;19.224;2023-11-21T08:13:26;35.25;32.25;20.25
76049;PMS7003;64967;50.234;19.224;2023-11-21T08:15:55;26.75;25.00;18.00
76049;PMS7003;64967;50.234;19.224;2023-11-21T08:18:23;24.00;21.25;15.00
76049;PMS7003;64967;50.234;19.224;2023-11-21T08:20:56;21.25;14.00;8.75
76049;PMS7003;64967;50.234;19.224;2023-11-21T08:23:30;19.75;19.00;13.00
76049;PMS7003;64967;50.234;19.224;2023-11-21T08:25:57;22.50;18.50;13.75
76049;PMS7003;64967;50.234;19.224;2023-11-21T08:28:23;19.00;15.25;12.75
76049;PMS7003;64967;50.234;19.224;2023-11-21T08:30:52;27.50;20.75;14.50
76049;PMS7003;64967;50.234;19.224;2023-11-21T08:33:21;23.50;20.50;14.00
76049;PMS7003;64967;50.234;19.224;2023-11-21T08:35:48;23.25;18.50;11.50
76049;PMS7003;64967;50.234;19.224;2023-11-21T08:38:15;14.75;11.50;9.00
76049;PMS7003;64967;50.234;19.224;2023-11-21T08:40:41;31.25;28.00;19.75
76049;PMS7003;64967;50.234;19.224;2023-11-21T08:43:08;22.25;20.50;14.50
76049;PMS7003;64967;50.234;19.224;2023-11-21T08:45:35;26.25;24.00;18.00
76049;PMS7003;64967;50.234;19.224;2023-11-21T08:48:01;28.25;21.25;15.00
76049;PMS7003;64967;50.234;19.224;2023-11-21T08:50:28;23.75;21.00;15.00
76049;PMS7003;64967;50.234;19.224;2023-11-21T08:52:55;23.00;18.25;13.50
76049;PMS7003;64967;50.234;19.224;2023-11-21T08:55:22;24.50;20.25;13.00
76049;PMS7003;64967;50.234;19.224;2023-11-21T08:57:49;23.00;17.25;13.50
76049;PMS7003;64967;50.234;19.224;2023-11-21T09:00:16;26.50;20.00;13.50
76049;PMS7003;64967;50.234;19.224;2023-11-21T09:02:45;24.00;19.50;13.50
76049;PMS7003;64967;50.234;19.224;2023-11-21T09:05:13;33.50;23.75;18.00
76049;PMS7003;64967;50.234;19.224;2023-11-21T09:07:41;29.00;28.25;19.00
76049;PMS7003;64967;50.234;19.224;2023-11-21T09:10:09;25.25;23.00;17.00
76049;PMS7003;64967;50.234;19.224;2023-11-21T09:12:36;18.75;15.50;10.00
76049;PMS7003;64967;50.234;19.224;2023-11-21T09:15:04;25.00;21.25;15.50
76049;PMS7003;64967;50.234;19.224;2023-11-21T09:17:32;22.00;19.75;14.00
76049;PMS7003;64967;50.234;19.224;2023-11-21T09:20:01;29.25;25.00;19.00
76049;PMS7003;64967;50.234;19.224;2023-11-21T09:22:30;29.00;26.25;19.25
76049;PMS7003;64967;50.234;19.224;2023-11-21T09:24:58;26.00;25.00;17.25
76049;PMS7003;64967;50.234;19.224;2023-11-21T09:27:25;31.75;27.00;19.75
76049;PMS7003;64967;50.234;19.224;2023-11-21T09:29:52;21.25;20.00;13.50
76049;PMS7003;64967;50.234;19.224;2023-11-21T09:32:24;23.00;19.75;15.25
76049;PMS7003;64967;50.234;19.224;2023-11-21T09:34:50;23.25;21.75;14.00
76049;PMS7003;64967;50.234;19.224;2023-11-21T09:37:17;34.25;30.00;18.50
76049;PMS7003;64967;50.234;19.224;2023-11-21T09:39:45;31.25;26.75;17.00
76049;PMS7003;64967;50.234;19.224;2023-11-21T09:42:20;28.50;27.00;20.00
76049;PMS7003;64967;50.234;19.224;2023-11-21T09:47:56;23.25;18.00;13.25
76049;PMS7003;64967;50.234;19.224;2023-11-21T09:50:24;25.50;23.00;16.00
76049;PMS7003;64967;50.234;19.224;2023-11-21T09:55:27;19.75;19.75;15.50
76049;PMS7003;64967;50.234;19.224;2023-11-21T09:58:04;25.50;23.25;16.00
76049;PMS7003;64967;50.234;19.224;2023-11-21T10:00:42;25.25;21.00;13.25
76049;PMS7003;64967;50.234;19.224;2023-11-21T10:03:10;16.25;16.00;13.25
76049;PMS7003;64967;50.234;19.224;2023-11-21T10:05:38;20.00;19.75;12.50
76049;PMS7003;64967;50.234;19.224;2023-11-21T10:08:10;31.25;27.75;19.00
76049;PMS7003;64967;50.234;19.224;2023-11-21T10:10:38;28.50;27.25;19.00
76049;PMS7003;64967;50.234;19.224;2023-11-21T10:13:11;25.50;22.50;14.00
76049;PMS7003;64967;50.234;19.224;2023-11-21T10:15:42;22.75;16.50;13.00
76049;PMS7003;64967;50.234;19.224;2023-11-21T10:18:15;20.50;15.25;12.25
76049;PMS7003;64967;50.234;19.224;2023-11-21T10:20:42;22.50;18.25;13.00
76049;PMS7003;64967;50.234;19.224;2023-11-21T10:23:10;20.75;18.25;12.50
76049;PMS7003;64967;50.234;19.224;2023-11-21T10:25:38;25.25;21.50;15.75
76049;PMS7003;64967;50.234;19.224;2023-11-21T10:28:04;19.00;14.25;12.25
76049;PMS7003;64967;50.234;19.224;2023-11-21T10:30:35;28.25;20.00;13.50
76049;PMS7003;64967;50.234;19.224;2023-11-21T10:33:04;19.75;17.50;11.00
76049;PMS7003;64967;50.234;19.224;2023-11-21T10:36:05;20.00;17.25;14.00
76049;PMS7003;64967;50.234;19.224;2023-11-21T10:38:27;18.00;14.75;10.00
76049;PMS7003;64967;50.234;19.224;2023-11-21T10:40:54;15.00;15.00;12.00
76049;PMS7003;64967;50.234;19.224;2023-11-21T10:43:24;15.25;13.75;9.75
76049;PMS7003;64967;50.234;19.224;2023-11-21T10:45:51;14.75;14.25;10.25
76049;PMS7003;64967;50.234;19.224;2023-11-21T10:48:18;17.50;14.00;10.25
76049;PMS7003;64967;50.234;19.224;2023-11-21T10:50:45;13.25;11.50;9.25
76049;PMS7003;64967;50.234;19.224;2023-11-21T10:53:13;13.00;12.00;7.50
76049;PMS7003;64967;50.234;19.224;2023-11-21T10:55:40;18.75;15.50;10.00
76049;PMS7003;64967;50.234;19.224;2023-11-21T10:58:07;12.50;12.50;9.00
76049;PMS7003;64967;50.234;19.224;2023-11-21T11:00:37;17.25;15.00;11.25
76049;PMS7003;64967;50.234;19.224;2023-11-21T11:03:06;15.25;14.00;10.00
76049;PMS7003;64967;50.234;19.224;2023-11-21T11:05:40;16.25;13.50;10.25
76049;PMS7003;64967;50.234;19.224;2023-11-21T11:08:08;13.75;10.00;8.00
76049;PMS7003;64967;50.234;19.224;2023-11-21T11:10:58;16.50;15.25;12.00
76049;PMS7003;64967;50.234;19.224;2023-11-21T11:13:25;18.75;14.50;9.00
76049;PMS7003;64967;50.234;19.224;2023-11-21T11:15:56;15.50;12.75;9.75
76049;PMS7003;64967;50.234;19.224;2023-11-21T11:18:32;8.00;7.00;4.00
76049;PMS7003;64967;50.234;19.224;2023-11-21T11:21:23;17.75;14.75;12.00
76049;PMS7003;64967;50.234;19.224;2023-11-21T11:27:09;16.25;14.00;11.00
76049;PMS7003;64967;50.234;19.224;2023-11-21T11:32:34;9.25;9.25;7.50
76049;PMS7003;64967;50.234;19.224;2023-11-21T11:35:37;7.75;7.75;6.75
76049;PMS7003;64967;50.234;19.224;2023-11-21T11:38:31;7.75;7.50;7.00
76049;PMS7003;64967;50.234;19.224;2023-11-21T11:41:01;8.00;8.00;7.00
76049;PMS7003;64967;50.234;19.224;2023-11-21T11:43:30;9.25;8.00;6.25
76049;PMS7003;64967;50.234;19.224;2023-11-21T11:46:10;9.75;9.25;7.75
76049;PMS7003;64967;50.234;19.224;2023-11-21T11:48:41;8.00;8.00;6.50
76049;PMS7003;64967;50.234;19.224;2023-11-21T11:51:11;12.50;10.50;8.00
76049;PMS7003;64967;50.234;19.224;2023-11-21T11:53:48;10.75;9.75;8.50
76049;PMS7003;64967;50.234;19.224;2023-11-21T11:58:57;19.50;17.00;14.00
76049;PMS7003;64967;50.234;19.224;2023-11-21T12:01:26;19.00;17.00;12.00
76049;PMS7003;64967;50.234;19.224;2023-11-21T12:06:43;20.25;18.00;14.50
76049;PMS7003;64967;50.234;19.224;2023-11-21T12:09:22;16.75;14.00;10.25
76049;PMS7003;64967;50.234;19.224;2023-11-21T12:11:51;14.00;13.00;9.50
76049;PMS7003;64967;50.234;19.224;2023-11-21T12:14:18;11.00;9.50;8.00
76049;PMS7003;64967;50.234;19.224;2023-11-21T12:16:45;15.75;14.00;12.00
76049;PMS7003;64967;50.234;19.224;2023-11-21T12:19:12;11.50;9.75;8.00
76049;PMS7003;64967;50.234;19.224;2023-11-21T12:21:39;9.00;8.25;5.00
76049;PMS7003;64967;50.234;19.224;2023-11-21T12:24:31;13.00;9.50;7.50
76049;PMS7003;64967;50.234;19.224;2023-11-21T12:26:57;13.50;12.25;8.50
76049;PMS7003;64967;50.234;19.224;2023-11-21T12:29:24;9.75;7.00;4.75
76049;PMS7003;64967;50.234;19.224;2023-11-21T12:31:50;8.50;7.25;6.25
76049;PMS7003;64967;50.234;19.224;2023-11-21T12:34:17;8.25;7.00;5.00
76049;PMS7003;64967;50.234;19.224;2023-11-21T12:36:44;13.00;11.25;8.25
76049;PMS7003;64967;50.234;19.224;2023-11-21T12:39:14;8.00;7.50;6.00
76049;PMS7003;64967;50.234;19.224;2023-11-21T12:41:40;6.50;6.50;4.00
76049;PMS7003;64967;50.234;19.224;2023-11-21T12:44:12;11.00;8.00;6.25
76049;PMS7003;64967;50.234;19.224;2023-11-21T12:46:42;12.00;8.00;6.50
76049;PMS7003;64967;50.234;19.224;2023-11-21T12:49:14;7.50;6.75;6.25
76049;PMS7003;64967;50.234;19.224;2023-11-21T12:52:04;8.25;8.25;6.25
76049;PMS7003;64967;50.234;19.224;2023-11-21T12:54:32;9.25;7.25;6.00
76049;PMS7003;64967;50.234;19.224;2023-11-21T12:57:01;4.50;4.50;4.00
76049;PMS7003;64967;50.234;19.224;2023-11-21T12:59:31;7.25;5.00;4.00
76049;PMS7003;64967;50.234;19.224;2023-11-21T13:01:57;7.75;7.00;6.00
76049;PMS7003;64967;50.234;19.224;2023-11-21T13:04:30;13.00;9.25;7.00
76049;PMS7003;64967;50.234;19.224;2023-11-21T13:07:02;7.25;7.25;6.50
76049;PMS7003;64967;50.234;19.224;2023-11-21T13:09:32;15.00;10.00;8.00
76049;PMS7003;64967;50.234;19.224;2023-11-21T13:12:00;13.50;11.00;7.75
76049;PMS7003;64967;50.234;19.224;2023-11-21T13:14:29;8.00;7.75;7.00
76049;PMS7003;64967;50.234;19.224;2023-11-21T13:16:58;13.50;10.00;7.50
76049;PMS7003;64967;50.234;19.224;2023-11-21T13:19:24;12.75;11.75;8.00
76049;PMS7003;64967;50.234;19.224;2023-11-21T13:21:55;12.00;9.00;7.00
76049;PMS7003;64967;50.234;19.224;2023-11-21T13:24:22;9.25;8.75;7.00
76049;PMS7003;64967;50.234;19.224;2023-11-21T13:26:48;13.00;9.75;8.00
76049;PMS7003;64967;50.234;19.224;2023-11-21T13:29:16;8.00;7.00;5.50
76049;PMS7003;64967;50.234;19.224;2023-11-21T13:31:50;13.00;7.00;5.00
76049;PMS7003;64967;50.234;19.224;2023-11-21T13:34:28;6.50;6.50;4.00
76049;PMS7003;64967;50.234;19.224;2023-11-21T13:36:59;7.00;6.00;4.00
76049;PMS7003;64967;50.234;19.224;2023-11-21T13:39:27;7.25;7.00;4.00
76049;PMS7003;64967;50.234;19.224;2023-11-21T13:42:00;7.00;5.50;4.50
76049;PMS7003;64967;50.234;19.224;2023-11-21T13:44:29;9.50;7.25;6.00
76049;PMS7003;64967;50.234;19.224;2023-11-21T13:47:04;8.75;8.25;7.00
76049;PMS7003;64967;50.234;19.224;2023-11-21T13:49:32;12.25;9.00;7.00
76049;PMS7003;64967;50.234;19.224;2023-11-21T13:52:07;23.00;19.25;12.00
76049;PMS7003;64967;50.234;19.224;2023-11-21T13:54:33;21.25;14.75;8.00
76049;PMS7003;64967;50.234;19.224;2023-11-21T13:57:00;21.00;16.00;11.00
76049;PMS7003;64967;50.234;19.224;2023-11-21T13:59:27;24.50;19.75;15.00
76049;PMS7003;64967;50.234;19.224;2023-11-21T14:01:56;32.00;24.25;16.50
76049;PMS7003;64967;50.234;19.224;2023-11-21T14:04:38;18.25;15.75;11.75
76049;PMS7003;64967;50.234;19.224;2023-11-21T14:07:27;15.25;14.00;11.75
76049;PMS7003;64967;50.234;19.224;2023-11-21T14:10:02;23.00;20.00;14.00
76049;PMS7003;64967;50.234;19.224;2023-11-21T14:12:30;20.00;16.00;12.00
76049;PMS7003;64967;50.234;19.224;2023-11-21T14:15:04;15.50;13.00;9.00
76049;PMS7003;64967;50.234;19.224;2023-11-21T14:17:36;14.25;11.50;9.00